createdAt,value
2022-10-13T00:01:34.551Z,19.42
2022-10-13T00:04:01.273Z,22.05
2022-10-13T00:06:28.168Z,19.15
2022-10-13T00:09:04.806Z,24.33
2022-10-13T00:11:57.659Z,16.92
2022-10-13T00:14:30.138Z,16.45
2022-10-13T00:16:56.993Z,14.75
2022-10-13T00:19:23.930Z,17.05
2022-10-13T00:21:50.608Z,21.05
2022-10-13T00:24:17.335Z,18.83
2022-10-13T00:26:44.114Z,20.00
2022-10-13T00:29:10.916Z,14.45
2022-10-13T00:31:37.869Z,18.10
2022-10-13T00:34:04.609Z,17.98
2022-10-13T00:36:40.110Z,17.10
2022-10-13T00:39:07.232Z,15.20
2022-10-13T00:41:34.057Z,15.85
2022-10-13T00:44:28.430Z,15.38
2022-10-13T00:46:55.289Z,20.38
2022-10-13T00:49:22.126Z,20.63
2022-10-13T00:51:50.688Z,19.80
2022-10-13T00:54:23.111Z,14.30
2022-10-13T00:56:51.073Z,15.77
2022-10-13T00:59:23.665Z,21.17
2022-10-13T01:02:01.830Z,19.03
2022-10-13T01:04:33.654Z,16.45
2022-10-13T01:07:02.668Z,18.10
2022-10-13T01:09:36.147Z,17.83
2022-10-13T01:14:48.886Z,18.60
2022-10-13T01:17:25.361Z,16.73
2022-10-13T01:20:20.792Z,22.05
2022-10-13T01:23:54.849Z,16.20
2022-10-13T01:26:58.385Z,26.38
2022-10-13T01:29:49.771Z,20.27
2022-10-13T01:32:28.768Z,20.20
2022-10-13T01:35:25.611Z,17.67
2022-10-13T01:38:07.101Z,16.50
2022-10-13T01:40:46.759Z,16.25
2022-10-13T01:43:31.491Z,16.13
2022-10-13T01:46:32.539Z,17.85
2022-10-13T01:49:09.229Z,20.77
2022-10-13T01:51:40.732Z,16.30
2022-10-13T01:54:14.190Z,18.08
2022-10-13T01:59:16.794Z,16.33
2022-10-13T02:02:11.798Z,19.30
2022-10-13T02:05:00.217Z,18.27
2022-10-13T02:08:12.374Z,16.75
2022-10-13T02:10:51.386Z,14.43
2022-10-13T02:13:29.368Z,15.48
2022-10-13T02:16:05.070Z,16.35
2022-10-13T02:18:38.638Z,19.25
2022-10-13T02:21:10.919Z,17.25
2022-10-13T02:23:47.819Z,22.08
2022-10-13T02:26:17.652Z,17.42
2022-10-13T02:28:44.996Z,25.85
2022-10-13T02:31:15.005Z,15.48
2022-10-13T02:33:42.396Z,21.05
2022-10-13T02:36:10.163Z,19.25
2022-10-13T02:38:40.332Z,16.58
2022-10-13T02:41:10.158Z,22.38
2022-10-13T02:43:38.982Z,19.88
2022-10-13T02:46:06.035Z,19.73
2022-10-13T02:48:32.906Z,23.10
2022-10-13T02:51:02.917Z,19.15
2022-10-13T02:53:29.909Z,17.88
2022-10-13T02:55:59.795Z,19.50
2022-10-13T02:58:26.806Z,19.25
2022-10-13T03:00:53.587Z,16.00
2022-10-13T03:03:21.269Z,22.63
2022-10-13T03:06:05.498Z,18.33
2022-10-13T03:08:37.071Z,24.88
2022-10-13T03:11:13.377Z,15.82
2022-10-13T03:13:49.391Z,16.48
2022-10-13T03:16:27.032Z,24.33
2022-10-13T03:18:54.589Z,19.48
2022-10-13T03:21:24.102Z,19.15
2022-10-13T03:23:56.686Z,21.63
2022-10-13T03:26:26.481Z,25.55
2022-10-13T03:31:43.822Z,20.60
2022-10-13T03:34:18.758Z,19.15
2022-10-13T03:36:48.210Z,19.08
2022-10-13T03:39:17.975Z,17.92
2022-10-13T03:41:45.889Z,21.02
2022-10-13T03:44:18.345Z,24.30
2022-10-13T03:46:48.845Z,28.13
2022-10-13T03:49:17.869Z,18.77
2022-10-13T03:51:45.528Z,20.30
2022-10-13T03:54:19.842Z,16.50
2022-10-13T03:56:56.341Z,18.75
2022-10-13T04:02:41.395Z,25.65
2022-10-13T04:05:21.064Z,16.23
2022-10-13T04:08:00.019Z,21.17
2022-10-13T04:10:33.680Z,19.52
2022-10-13T04:15:47.041Z,24.50
2022-10-13T04:18:17.206Z,18.00
2022-10-13T04:20:56.471Z,18.90
2022-10-13T04:23:26.787Z,21.70
2022-10-13T04:25:59.578Z,22.75
2022-10-13T04:28:29.994Z,18.23
2022-10-13T04:30:59.063Z,20.85
2022-10-13T04:33:26.460Z,19.77
2022-10-13T04:36:10.254Z,22.42
2022-10-13T04:41:19.543Z,15.43
2022-10-13T04:43:53.121Z,27.73
2022-10-13T04:46:27.059Z,19.50
2022-10-13T04:49:00.400Z,26.50
2022-10-13T04:51:33.330Z,25.80
2022-10-13T04:54:06.402Z,21.27
2022-10-13T04:56:33.869Z,28.48
2022-10-13T04:59:07.885Z,27.05
2022-10-13T05:01:41.465Z,19.35
2022-10-13T05:04:10.282Z,21.48
2022-10-13T05:07:12.695Z,22.90
2022-10-13T05:09:34.268Z,31.42
2022-10-13T05:12:21.138Z,21.58
2022-10-13T05:14:49.564Z,21.80
2022-10-13T05:17:23.269Z,25.17
2022-10-13T05:19:50.957Z,25.50
2022-10-13T05:22:22.165Z,23.77
2022-10-13T05:24:50.438Z,28.35
2022-10-13T05:27:26.921Z,24.90
2022-10-13T05:30:04.421Z,25.50
2022-10-13T05:32:39.068Z,28.48
2022-10-13T05:35:06.922Z,27.75
2022-10-13T05:37:37.160Z,24.05
2022-10-13T05:40:10.677Z,23.05
2022-10-13T05:45:11.915Z,22.02
2022-10-13T05:47:42.577Z,24.75
2022-10-13T05:50:15.332Z,26.40
2022-10-13T05:52:48.756Z,25.75
2022-10-13T05:55:37.261Z,23.50
2022-10-13T06:02:09.471Z,23.50
2022-10-13T06:04:45.919Z,25.92
2022-10-13T06:07:26.979Z,22.35
2022-10-13T06:10:03.689Z,24.05
2022-10-13T06:12:38.022Z,26.60
2022-10-13T06:15:37.498Z,27.95
2022-10-13T06:18:19.613Z,24.90
2022-10-13T06:20:52.751Z,26.13
2022-10-13T06:23:49.440Z,26.73
2022-10-13T06:26:25.707Z,25.70
2022-10-13T06:28:59.491Z,29.30
2022-10-13T06:31:32.808Z,28.20
2022-10-13T06:34:05.781Z,27.10
2022-10-13T06:36:42.150Z,25.05
2022-10-13T06:39:26.804Z,21.17
2022-10-13T06:42:00.408Z,22.52
2022-10-13T06:44:37.298Z,24.77
2022-10-13T06:47:17.238Z,18.85
2022-10-13T06:49:57.163Z,22.83
2022-10-13T06:52:40.748Z,23.88
2022-10-13T06:55:14.833Z,21.55
2022-10-13T06:57:45.414Z,23.92
2022-10-13T07:00:21.091Z,18.73
2022-10-13T07:02:54.768Z,22.38
2022-10-13T07:05:24.786Z,17.98
2022-10-13T07:07:55.152Z,16.90
2022-10-13T07:10:25.475Z,20.17
2022-10-13T07:12:59.907Z,27.02
2022-10-13T07:15:30.026Z,19.13
2022-10-13T07:18:12.137Z,27.58
2022-10-13T07:20:45.664Z,24.65
2022-10-13T07:25:42.978Z,20.70
2022-10-13T07:28:13.400Z,20.08
2022-10-13T07:30:58.788Z,23.25
2022-10-13T07:33:29.269Z,20.70
2022-10-13T07:36:00.504Z,22.05
2022-10-13T07:38:39.414Z,21.52
2022-10-13T07:41:22.615Z,18.00
2022-10-13T07:43:53.456Z,21.55
2022-10-13T07:46:37.151Z,20.10
2022-10-13T07:51:56.000Z,21.13
2022-10-13T07:54:25.173Z,17.08
2022-10-13T07:56:58.806Z,17.80
2022-10-13T07:59:29.015Z,25.10
2022-10-13T08:02:00.295Z,20.85
2022-10-13T08:04:40.304Z,16.52
2022-10-13T08:07:11.107Z,23.80
2022-10-13T08:09:38.344Z,22.42
2022-10-13T08:12:15.080Z,21.60
2022-10-13T08:14:42.726Z,20.00
2022-10-13T08:17:13.222Z,27.27
2022-10-13T08:19:40.156Z,18.10
2022-10-13T08:22:09.778Z,18.92
2022-10-13T08:24:37.570Z,22.45
2022-10-13T08:27:07.562Z,19.20
2022-10-13T08:29:34.623Z,18.10
2022-10-13T08:32:02.112Z,18.90
2022-10-13T08:34:31.669Z,17.83
2022-10-13T08:37:08.959Z,19.15
2022-10-13T08:39:42.091Z,23.33
2022-10-13T08:42:22.676Z,15.88
2022-10-13T08:45:22.283Z,17.92
2022-10-13T08:47:55.970Z,16.67
2022-10-13T08:50:26.380Z,14.88
2022-10-13T08:52:58.141Z,18.20
2022-10-13T08:55:48.474Z,16.40
2022-10-13T08:58:23.367Z,16.17
2022-10-13T09:01:21.177Z,15.48
2022-10-13T09:04:12.294Z,17.50
2022-10-13T09:06:54.517Z,15.25
2022-10-13T09:09:21.521Z,20.52
2022-10-13T09:11:55.866Z,21.42
2022-10-13T09:14:47.560Z,17.75
2022-10-13T09:17:26.624Z,16.55
2022-10-13T09:20:22.209Z,19.55
2022-10-13T09:23:20.038Z,15.27
2022-10-13T09:25:50.080Z,14.93
2022-10-13T09:28:23.975Z,13.13
2022-10-13T09:31:04.168Z,20.30
2022-10-13T09:33:36.032Z,22.90
2022-10-13T09:36:21.633Z,18.05
2022-10-13T09:39:20.509Z,16.60
2022-10-13T09:41:47.831Z,20.40
2022-10-13T09:44:28.212Z,16.00
2022-10-13T09:47:05.269Z,20.60
2022-10-13T09:49:47.431Z,23.45
2022-10-13T09:52:14.018Z,21.00
2022-10-13T09:55:19.559Z,18.20
2022-10-13T10:03:41.879Z,18.17
2022-10-13T10:06:16.059Z,18.52
2022-10-13T10:09:08.895Z,18.00
2022-10-13T10:11:41.506Z,15.13
2022-10-13T10:14:41.638Z,16.90
2022-10-13T10:17:37.072Z,21.85
2022-10-13T10:20:48.842Z,13.57
2022-10-13T10:23:44.845Z,13.40
2022-10-13T10:30:32.669Z,16.80
2022-10-13T10:33:37.701Z,19.42
2022-10-13T10:36:47.156Z,21.08
2022-10-13T10:39:32.404Z,19.73
2022-10-13T10:42:10.167Z,16.38
2022-10-13T10:47:54.141Z,17.10
2022-10-13T10:50:32.187Z,14.60
2022-10-13T10:53:21.422Z,18.95
2022-10-13T10:56:07.815Z,18.42
2022-10-13T11:02:57.922Z,14.18
2022-10-13T11:05:24.964Z,14.88
2022-10-13T11:07:51.879Z,20.02
2022-10-13T11:10:21.915Z,18.83
2022-10-13T11:13:19.180Z,18.35
2022-10-13T11:15:58.506Z,14.48
2022-10-13T11:19:09.525Z,16.52
2022-10-13T11:22:06.767Z,16.52
2022-10-13T11:24:43.127Z,17.90
2022-10-13T11:27:18.064Z,16.02
2022-10-13T11:29:46.462Z,19.27
2022-10-13T11:32:30.871Z,21.33
2022-10-13T11:35:15.271Z,17.65
2022-10-13T11:38:07.785Z,16.17
2022-10-13T11:41:18.819Z,16.45
2022-10-13T11:43:54.634Z,17.55
2022-10-13T11:46:27.458Z,16.77
2022-10-13T11:49:11.141Z,15.02
2022-10-13T11:52:25.450Z,18.92
2022-10-13T11:55:25.831Z,20.83
2022-10-13T11:58:16.213Z,17.80
2022-10-13T12:01:01.018Z,18.35
2022-10-13T12:03:41.829Z,16.88
2022-10-13T12:09:20.929Z,23.52
2022-10-13T12:12:05.084Z,24.65
2022-10-13T12:14:40.548Z,21.20
2022-10-13T12:17:31.772Z,24.40
2022-10-13T12:20:09.308Z,22.95
2022-10-13T12:22:47.828Z,19.85
2022-10-13T12:25:23.991Z,23.65
2022-10-13T12:27:54.360Z,21.40
2022-10-13T12:30:24.373Z,26.45
2022-10-13T12:32:56.891Z,20.45
2022-10-13T12:35:33.476Z,22.40
2022-10-13T12:38:20.279Z,25.60
2022-10-13T12:40:57.428Z,25.33
2022-10-13T12:43:30.922Z,28.30
2022-10-13T12:48:36.489Z,24.42
2022-10-13T12:51:34.094Z,27.08
2022-10-13T12:54:06.674Z,24.02
2022-10-13T12:56:33.925Z,32.33
2022-10-13T12:59:01.638Z,25.50
2022-10-13T13:01:31.797Z,29.20
2022-10-13T13:04:16.605Z,26.25
2022-10-13T13:06:58.638Z,23.60
2022-10-13T13:09:39.031Z,31.40
2022-10-13T13:12:21.867Z,25.92
2022-10-13T13:14:55.424Z,26.38
2022-10-13T13:17:56.501Z,28.48
2022-10-13T13:20:27.411Z,31.95
2022-10-13T13:22:59.957Z,29.92
2022-10-13T13:25:32.232Z,24.95
2022-10-13T13:28:13.252Z,28.30
2022-10-13T13:30:50.258Z,20.60
2022-10-13T13:33:17.495Z,24.30
2022-10-13T13:35:49.433Z,25.70
2022-10-13T13:38:16.205Z,26.40
2022-10-13T13:43:26.754Z,25.30
2022-10-13T13:45:54.512Z,23.38
2022-10-13T13:48:21.416Z,21.23
2022-10-13T13:50:48.373Z,25.70
2022-10-13T13:53:19.289Z,21.98
2022-10-13T13:59:04.533Z,18.92
2022-10-13T14:01:44.465Z,22.83
2022-10-13T14:04:11.563Z,24.00
2022-10-13T14:06:38.778Z,27.17
2022-10-13T14:09:12.150Z,24.38
2022-10-13T14:11:38.961Z,21.60
2022-10-13T14:14:08.314Z,21.70
2022-10-13T14:16:38.751Z,24.27
2022-10-13T14:19:05.580Z,19.23
2022-10-13T14:21:36.933Z,21.83
2022-10-13T14:24:07.996Z,23.05
2022-10-13T14:26:34.780Z,20.05
2022-10-13T14:29:04.766Z,24.63
2022-10-13T14:31:33.122Z,24.23
2022-10-13T14:34:00.569Z,24.75
2022-10-13T14:36:33.012Z,18.08
2022-10-13T14:39:08.268Z,24.13
2022-10-13T14:41:43.503Z,21.10
2022-10-13T14:44:22.888Z,23.60
2022-10-13T14:47:04.844Z,25.58
2022-10-13T14:49:37.187Z,23.95
2022-10-13T14:52:04.464Z,18.92
2022-10-13T14:54:31.566Z,20.88
2022-10-13T14:57:01.148Z,18.75
2022-10-13T14:59:28.176Z,18.15
2022-10-13T15:01:55.177Z,20.30
2022-10-13T15:04:52.730Z,19.60
2022-10-13T15:07:27.205Z,19.75
2022-10-13T15:10:04.899Z,33.15
2022-10-13T15:12:49.252Z,22.17
2022-10-13T15:15:22.160Z,26.52
2022-10-13T15:17:49.577Z,28.92
2022-10-13T15:20:24.489Z,23.30
2022-10-13T15:22:54.926Z,19.83
2022-10-13T15:25:27.478Z,22.77
2022-10-13T15:28:05.648Z,22.07
2022-10-13T15:30:50.223Z,21.23
2022-10-13T15:33:20.623Z,24.33
2022-10-13T15:36:12.598Z,25.73
2022-10-13T15:38:42.670Z,25.65
2022-10-13T15:41:11.045Z,20.55
2022-10-13T15:43:39.056Z,25.48
2022-10-13T15:46:30.747Z,23.25
2022-10-13T15:48:58.121Z,25.52
2022-10-13T15:51:27.024Z,20.52
2022-10-13T15:53:55.358Z,21.75
2022-10-13T15:56:34.875Z,22.45
2022-10-13T15:59:02.048Z,25.10
2022-10-13T16:01:28.884Z,18.10
2022-10-13T16:03:56.449Z,23.33
2022-10-13T16:06:25.218Z,25.35
2022-10-13T16:08:54.632Z,23.85
2022-10-13T16:11:26.499Z,25.38
2022-10-13T16:13:53.725Z,21.50
2022-10-13T16:16:23.274Z,21.90
2022-10-13T16:18:51.648Z,25.10
2022-10-13T16:21:30.709Z,25.20
2022-10-13T16:24:02.637Z,23.35
2022-10-13T16:26:38.796Z,24.50
2022-10-13T16:29:20.128Z,24.75
2022-10-13T16:31:47.293Z,29.65
2022-10-13T16:34:19.898Z,25.92
2022-10-13T16:37:02.857Z,29.00
2022-10-13T16:39:39.895Z,22.60
2022-10-13T16:42:22.767Z,28.30
2022-10-13T16:44:55.566Z,22.50
2022-10-13T16:47:25.910Z,33.00
2022-10-13T16:49:58.604Z,22.67
2022-10-13T16:52:25.610Z,25.70
2022-10-13T16:54:55.914Z,32.08
2022-10-13T16:57:23.502Z,29.33
2022-10-13T16:59:51.315Z,25.10
2022-10-13T17:02:22.331Z,28.08
2022-10-13T17:04:55.583Z,26.27
2022-10-13T17:07:30.249Z,23.50
2022-10-13T17:09:57.945Z,31.15
2022-10-13T17:12:28.118Z,24.67
2022-10-13T17:14:55.126Z,28.17
2022-10-13T17:17:27.110Z,25.65
2022-10-13T17:19:54.220Z,26.80
2022-10-13T17:22:27.259Z,32.58
2022-10-13T17:24:54.582Z,32.33
2022-10-13T17:27:28.066Z,35.63
2022-10-13T17:32:43.432Z,32.30
2022-10-13T17:35:29.406Z,27.60
2022-10-13T17:37:56.501Z,30.75
2022-10-13T17:40:23.439Z,30.13
2022-10-13T17:42:50.489Z,31.42
2022-10-13T17:45:25.585Z,35.75
2022-10-13T17:52:04.096Z,26.95
2022-10-13T17:59:32.303Z,42.20
2022-10-13T18:05:56.553Z,32.78
2022-10-13T18:11:09.747Z,32.58
2022-10-13T18:13:43.644Z,25.83
2022-10-13T18:16:22.808Z,33.33
2022-10-13T18:18:54.462Z,33.75
2022-10-13T18:21:29.557Z,37.92
2022-10-13T18:24:04.216Z,30.75
2022-10-13T18:27:06.855Z,32.15
2022-10-13T18:33:42.238Z,31.52
2022-10-13T18:36:44.677Z,35.88
2022-10-13T18:40:25.432Z,43.67
2022-10-13T18:47:15.040Z,35.65
2022-10-13T19:06:00.730Z,32.38
2022-10-13T19:19:58.440Z,32.60
2022-10-13T19:37:24.113Z,38.90
2022-10-13T19:47:36.991Z,36.17
2022-10-13T19:57:31.139Z,36.40
2022-10-13T20:04:30.986Z,36.92
2022-10-13T20:07:29.915Z,33.60
2022-10-13T20:38:22.215Z,35.85
2022-10-13T20:46:44.622Z,29.42
2022-10-13T20:49:28.667Z,37.25
2022-10-13T20:52:35.444Z,32.65
2022-10-13T20:55:16.716Z,33.25
2022-10-13T20:58:02.163Z,33.75
2022-10-13T21:00:34.179Z,35.15
2022-10-13T21:03:06.790Z,28.63
2022-10-13T21:05:39.342Z,32.55
2022-10-13T21:08:09.043Z,29.30
2022-10-13T21:10:37.024Z,35.67
2022-10-13T21:13:04.045Z,30.02
2022-10-13T21:15:38.731Z,28.83
2022-10-13T21:18:06.492Z,30.73
2022-10-13T21:20:37.981Z,31.52
2022-10-13T21:23:29.299Z,31.65
2022-10-13T21:25:56.798Z,29.00
2022-10-13T21:28:26.506Z,28.85
2022-10-13T21:31:26.622Z,27.58
2022-10-13T21:33:54.065Z,31.42
2022-10-13T21:36:34.271Z,25.95
2022-10-13T21:39:04.625Z,26.13
2022-10-13T21:41:34.707Z,30.40
2022-10-13T21:44:02.012Z,28.92
2022-10-13T21:53:20.224Z,28.80
2022-10-13T21:56:16.508Z,28.60
2022-10-13T21:58:52.525Z,36.97
2022-10-13T22:01:38.363Z,32.65
2022-10-13T22:04:13.107Z,29.38
2022-10-13T22:06:40.350Z,29.65
2022-10-13T22:09:07.546Z,28.65
2022-10-13T22:11:36.640Z,28.42
2022-10-13T22:14:04.838Z,31.77
2022-10-13T22:16:48.819Z,28.67
2022-10-13T22:19:38.296Z,30.33
2022-10-13T22:32:39.700Z,29.88
2022-10-13T22:38:18.270Z,29.90
2022-10-13T22:40:54.447Z,34.90
2022-10-13T22:43:26.525Z,38.90
2022-10-13T22:45:53.392Z,36.38
2022-10-13T22:48:22.899Z,30.23
2022-10-13T22:50:52.635Z,28.65
2022-10-13T22:53:24.997Z,28.17
2022-10-13T22:55:51.759Z,32.08
2022-10-13T22:58:27.669Z,34.50
2022-10-13T23:01:00.214Z,29.95
2022-10-13T23:03:26.920Z,30.30
2022-10-13T23:09:13.572Z,31.38
2022-10-13T23:12:15.261Z,29.42
2022-10-13T23:18:13.289Z,31.10
2022-10-13T23:21:06.110Z,33.83
2022-10-13T23:23:47.999Z,37.30
2022-10-13T23:26:50.563Z,37.03
2022-10-13T23:29:22.684Z,27.65
2022-10-13T23:31:52.516Z,31.40
2022-10-13T23:34:22.504Z,31.23
2022-10-13T23:40:10.052Z,32.63
2022-10-13T23:43:42.131Z,31.75
2022-10-13T23:47:38.872Z,33.63
2022-10-13T23:50:23.817Z,28.08
2022-10-13T23:53:49.024Z,30.50
2022-10-13T23:56:19.410Z,35.00
2022-10-13T23:58:47.520Z,29.38
